createdAt,value
2023-04-21T08:07:12.296Z,33.5830
2023-04-21T08:08:13.467Z,33.5680
2023-04-21T08:09:14.902Z,33.5747
2023-04-21T08:10:16.395Z,33.5671
2023-04-21T08:11:17.832Z,33.4934
2023-04-21T08:14:04.345Z,32.5689
2023-04-21T08:15:05.553Z,31.4099
2023-04-21T08:16:07.094Z,30.9554
2023-04-21T08:17:08.750Z,30.4576
2023-04-21T08:18:10.242Z,30.4815
2023-04-21T08:19:11.360Z,29.6535
2023-04-21T08:20:13.056Z,28.9878
2023-04-21T08:21:14.273Z,28.4929
2023-04-21T08:22:15.762Z,27.9962
2023-04-21T08:23:17.553Z,27.5422
2023-04-21T08:25:20.070Z,26.6831
2023-04-21T08:26:21.657Z,26.2885
2023-04-21T08:27:23.535Z,25.8950
2023-04-21T08:28:24.262Z,25.6525
2023-04-21T08:29:25.700Z,25.2885
2023-04-21T08:30:27.277Z,24.9325
2023-04-21T08:31:28.748Z,24.6150
2023-04-21T08:32:30.204Z,24.2899
2023-04-21T08:33:31.566Z,23.9572
2023-04-21T08:34:33.133Z,23.6277
2023-04-21T08:35:34.268Z,23.3453
2023-04-21T08:36:35.751Z,22.5336
2023-04-21T08:37:37.152Z,23.1834
2023-04-21T08:39:39.955Z,23.5152
2023-04-21T08:40:41.512Z,23.2468
2023-04-21T08:41:42.835Z,22.9729
2023-04-21T08:42:44.291Z,22.7130
2023-04-21T08:43:45.866Z,22.4797
2023-04-21T08:44:47.140Z,22.2568
2023-04-21T08:45:48.676Z,22.0520
2023-04-21T08:46:50.050Z,21.8526
2023-04-21T08:47:51.548Z,21.6456
2023-04-21T08:48:54.559Z,21.4551
2023-04-21T08:49:54.319Z,21.2720
2023-04-21T08:50:55.764Z,21.0883
2023-04-21T08:51:57.196Z,20.9165
2023-04-21T08:52:58.611Z,20.7414
2023-04-21T08:54:00.168Z,19.7582
2023-04-21T08:55:01.468Z,19.1557
2023-04-21T08:56:10.890Z,18.9985
2023-04-21T08:57:14.217Z,18.8168
2023-04-21T08:58:05.888Z,18.6972
2023-04-21T08:59:07.228Z,18.6528
2023-04-21T09:00:08.643Z,18.5851
2023-04-21T09:01:10.153Z,18.2059
2023-04-21T09:02:11.604Z,18.8257
2023-04-21T09:03:23.253Z,19.8894
2023-04-21T09:04:14.481Z,20.3665
2023-04-21T09:05:16.112Z,20.5722
2023-04-21T09:06:17.495Z,21.2652
2023-04-21T09:07:19.068Z,21.7668
2023-04-21T09:08:20.079Z,22.4142
2023-04-21T09:09:21.827Z,22.5287
2023-04-21T09:10:24.111Z,22.5812
2023-04-21T09:11:24.559Z,22.3644
2023-04-21T09:12:25.883Z,21.9178
2023-04-21T09:13:27.438Z,21.7001
2023-04-21T09:14:29.017Z,21.5096
2023-04-21T09:15:30.138Z,21.1574
2023-04-21T09:16:31.564Z,20.9153
2023-04-21T09:17:33.057Z,21.5494
2023-04-21T09:18:34.452Z,22.3868
2023-04-21T09:19:36.949Z,23.0293
2023-04-21T09:20:37.590Z,23.6333
2023-04-21T09:21:39.717Z,23.4461
2023-04-21T09:22:40.406Z,22.9594
2023-04-21T09:23:41.837Z,22.4924
2023-04-21T09:24:43.215Z,22.0723
2023-04-21T09:25:44.878Z,21.6995
2023-04-21T09:26:46.718Z,21.3681
2023-04-21T09:27:47.581Z,21.0720
2023-04-21T09:28:48.962Z,20.7800
2023-04-21T09:29:50.438Z,20.5050
2023-04-21T09:30:51.966Z,20.2507
2023-04-21T09:31:53.328Z,20.0129
2023-04-21T09:32:54.651Z,19.7863
2023-04-21T09:33:58.568Z,19.5652
2023-04-21T09:34:57.587Z,19.3488
2023-04-21T09:35:58.870Z,19.0697
2023-04-21T09:37:00.358Z,19.8501
2023-04-21T09:38:03.599Z,20.5370
2023-04-21T09:40:05.332Z,21.6401
2023-04-21T09:41:06.047Z,20.5786
2023-04-21T09:42:07.501Z,19.4277
2023-04-21T09:43:09.148Z,18.5701
2023-04-21T09:44:10.588Z,17.9833
2023-04-21T09:46:13.949Z,17.3794
2023-04-21T09:47:15.083Z,17.2618
2023-04-21T09:48:16.260Z,22.3572
2023-04-21T09:49:17.678Z,26.1655
2023-04-21T09:51:32.685Z,24.9010
2023-04-21T09:52:21.911Z,26.1762
2023-04-21T09:53:23.369Z,27.8044
2023-04-21T09:55:26.202Z,25.3274
2023-04-21T09:56:27.646Z,23.0883
2023-04-21T09:59:04.336Z,33.7514
2023-04-21T10:00:06.041Z,33.9070
2023-04-21T10:01:09.883Z,29.8136
2023-04-21T10:02:08.864Z,26.2080
2023-04-21T10:03:10.232Z,24.2979
2023-04-21T10:04:11.682Z,23.7113
2023-04-21T10:05:13.028Z,34.7285
2023-04-21T10:06:14.784Z,36.3975
2023-04-21T10:07:15.834Z,35.6141
2023-04-21T10:08:17.287Z,35.7402
2023-04-21T10:09:18.755Z,35.5048
2023-04-21T10:10:20.151Z,35.1135
2023-04-21T10:11:23.888Z,34.9220
2023-04-21T10:12:23.283Z,30.6691
2023-04-21T10:13:24.513Z,30.2594
2023-04-21T10:14:26.021Z,30.0154
2023-04-21T10:15:27.548Z,31.1952
2023-04-21T10:16:28.835Z,38.2197
2023-04-21T10:17:30.250Z,40.9979
2023-04-21T10:18:31.684Z,40.3623
2023-04-21T10:19:33.407Z,39.8477
2023-04-21T10:20:34.582Z,42.2456
2023-04-21T10:21:36.082Z,37.3423
2023-04-21T10:22:37.495Z,32.2439
2023-04-21T10:23:39.050Z,30.1707
2023-04-21T10:24:40.364Z,34.8998
2023-04-21T10:25:41.823Z,41.5335
2023-04-21T10:26:43.231Z,47.1420
2023-04-21T10:27:44.664Z,51.8074
2023-04-21T10:28:46.096Z,53.8769
2023-04-21T10:29:56.039Z,46.6102
2023-04-21T10:30:49.002Z,46.6434
2023-04-21T10:31:50.471Z,50.8428
2023-04-21T10:32:51.842Z,55.0271
2023-04-21T10:33:53.439Z,58.5796
2023-04-21T10:34:54.792Z,60.2532
2023-04-21T10:35:56.159Z,51.7095
2023-04-21T10:36:57.680Z,47.3872
2023-04-21T10:37:59.058Z,51.0825
2023-04-21T10:39:00.517Z,55.2347
2023-04-21T10:40:01.939Z,58.8278
2023-04-21T10:41:03.410Z,61.6523
2023-04-21T10:42:04.805Z,56.3190
2023-04-21T10:43:06.245Z,47.6091
2023-04-21T10:44:07.682Z,49.1958
2023-04-21T10:45:09.224Z,53.4443
2023-04-21T10:46:10.519Z,57.2930
2023-04-21T10:48:13.494Z,60.1335
2023-04-21T10:49:14.940Z,50.5228
2023-04-21T10:50:16.364Z,49.1615
2023-04-21T10:51:17.789Z,53.2259
2023-04-21T10:52:19.183Z,57.0894
2023-04-21T10:53:20.630Z,60.2993
2023-04-21T10:54:22.264Z,61.9744
2023-04-21T10:55:23.531Z,53.5882
2023-04-21T10:56:25.012Z,46.2987
2023-04-21T10:57:26.421Z,48.9385
2023-04-21T10:58:27.883Z,53.3216
2023-04-21T10:59:29.287Z,57.1289
2023-04-21T11:00:30.826Z,60.3608
2023-04-21T11:01:32.303Z,58.8077
2023-04-21T11:02:35.811Z,49.3370
2023-04-21T11:03:35.195Z,49.0919
2023-04-21T11:04:36.782Z,53.1394
2023-04-21T11:05:37.996Z,56.9461
2023-04-21T11:06:39.353Z,60.1458
2023-04-21T11:07:40.907Z,61.3608
2023-04-21T11:08:42.237Z,52.5384
2023-04-21T11:09:43.657Z,48.0128
2023-04-21T11:10:45.154Z,51.7121
2023-04-21T11:11:46.592Z,55.7968
2023-04-21T11:12:48.042Z,59.2146
2023-04-21T11:13:49.512Z,61.8677
2023-04-21T11:14:50.925Z,56.7117
2023-04-21T11:15:52.335Z,49.8127
2023-04-21T11:16:53.786Z,52.3683
2023-04-21T11:17:55.344Z,56.2022
2023-04-21T11:18:56.621Z,59.4699
2023-04-21T11:19:58.084Z,62.1862
2023-04-21T11:20:59.490Z,59.1561
2023-04-21T11:22:01.000Z,48.0961
2023-04-21T11:23:02.394Z,44.0181
2023-04-21T11:24:03.867Z,48.2714
2023-04-21T11:25:05.271Z,52.9042
2023-04-21T11:26:06.729Z,56.7398
2023-04-21T11:27:08.210Z,59.8716
2023-04-21T11:28:09.675Z,56.0211
2023-04-21T11:29:11.096Z,47.3499
2023-04-21T11:30:12.578Z,48.6727
2023-04-21T11:31:14.156Z,53.0452
2023-04-21T11:32:15.372Z,56.8098
2023-04-21T11:33:16.865Z,59.9202
2023-04-21T11:34:18.491Z,51.3354
2023-04-21T11:35:20.870Z,42.2719
2023-04-21T11:36:21.134Z,41.0190
2023-04-21T11:37:22.546Z,45.2739
2023-04-21T11:39:32.804Z,44.0757
2023-04-21T11:40:34.165Z,43.0567
2023-04-21T11:41:37.378Z,40.4703
2023-04-21T11:42:37.119Z,38.4556
2023-04-21T11:43:38.491Z,39.0505
2023-04-21T11:44:39.990Z,38.1020
2023-04-21T11:45:44.063Z,37.3772
2023-04-21T11:46:43.632Z,35.1451
2023-04-21T11:47:44.369Z,33.9145
2023-04-21T11:48:45.768Z,35.6174
2023-04-21T11:49:47.258Z,40.3929
2023-04-21T11:50:48.661Z,44.4138
2023-04-21T11:55:33.447Z,43.6560
2023-04-21T11:56:34.920Z,42.5710
2023-04-21T11:57:36.346Z,42.9420
2023-04-21T11:58:37.796Z,42.8724
2023-04-21T11:59:39.175Z,41.1967
2023-04-21T12:00:40.593Z,37.1799
2023-04-21T12:01:42.079Z,32.2707
2023-04-21T12:02:43.703Z,28.9994
2023-04-21T12:03:45.094Z,29.1152
2023-04-21T12:04:46.419Z,35.4523
2023-04-21T12:05:47.929Z,42.1535
2023-04-21T12:06:49.284Z,47.3602
2023-04-21T12:07:50.705Z,51.5632
2023-04-21T12:08:52.152Z,51.7579
2023-04-21T12:09:53.681Z,47.5214
2023-04-21T12:10:54.990Z,50.7401
2023-04-21T12:11:56.480Z,54.4530
2023-04-21T12:12:57.902Z,57.5692
2023-04-21T12:13:59.371Z,60.4527
2023-04-21T12:15:00.821Z,57.4137
2023-04-21T12:16:02.232Z,47.3216
2023-04-21T12:17:03.682Z,47.1692
2023-04-21T12:18:05.179Z,51.9440
2023-04-21T12:20:07.992Z,59.6545
2023-04-21T12:21:09.333Z,56.8905
2023-04-21T12:22:10.775Z,43.1169
2023-04-21T12:23:12.209Z,39.5228
2023-04-21T12:24:13.694Z,35.3028
2023-04-21T12:37:32.439Z,50.1021
2023-04-21T12:38:33.905Z,54.8426
2023-04-21T12:39:35.315Z,58.6908
2023-04-21T12:40:36.800Z,50.1918
2023-04-21T12:41:38.237Z,44.3236
2023-04-21T12:42:39.678Z,50.2636
2023-04-21T12:43:41.077Z,55.2552
2023-04-21T12:44:42.563Z,58.6140
2023-04-21T12:45:43.947Z,53.8535
2023-04-21T12:46:45.395Z,43.3149
2023-04-21T12:47:47.248Z,37.5519
2023-04-21T12:48:48.268Z,41.1633
2023-04-21T12:49:49.690Z,47.1317
2023-04-21T12:50:51.101Z,52.1279
2023-04-21T12:51:52.575Z,56.0710
2023-04-21T12:52:53.966Z,56.8143
2023-04-21T12:53:55.442Z,50.6381
2023-04-21T12:54:56.938Z,52.3696
2023-04-21T12:56:04.749Z,55.9566
2023-04-21T12:56:59.843Z,58.4694
2023-04-21T12:58:01.280Z,51.7240
2023-04-21T12:59:02.728Z,41.9932
2023-04-21T13:23:22.352Z,37.2322
2023-04-21T13:24:23.726Z,31.8095
2023-04-21T13:25:25.183Z,28.1759
2023-04-21T13:26:26.598Z,27.1648
2023-04-21T13:27:28.023Z,32.2926
2023-04-21T13:28:29.454Z,39.5246
2023-04-21T13:29:31.075Z,45.7772
2023-04-21T13:30:32.344Z,50.9764
2023-04-21T13:31:33.808Z,53.5031
2023-04-21T13:32:35.216Z,48.3979
2023-04-21T13:33:36.636Z,50.0816
2023-04-21T13:34:38.081Z,54.3720
